To NAV CANADA Home Page Login to a new session Search on AWWS site Disclaimer Vers la page française équivalente Tips FAQ What's new on the site To the Forecasts and Observations / NOTAM section To "File a Flight Plan" website Publications and other links Update of the User's profile FIC Telephone Numbers My Weather Data Folder Route Weather Data Regional Weather Data Local Weather Data To the Forecasts and Observations / NOTAM section
Request Generated 04/24/2019 at 16:02:03 UTC . Weather information available at that time is displayed.

METAR/TAF

THOMPSON/MB    

METAR CYTH 241500Z 26011G17KT 15SM FEW030 FEW120 FEW210 09/02 A2946 RMK SC1AC1CI1 SC TR AC TR SLP988 DENSITY ALT 800FT=
METAR CYTH 241400Z 27006KT 15SM FEW140 FEW210 08/06 A2948 RMK AC1CI1 SLP994=
METAR CYTH 241300Z 26006KT 15SM SCT140 SCT210 04/04 A2949 RMK AC3CI1 SLP996=

TAF CYTH 241239Z 2413/2501 VRB03KT P6SM FEW120
BECMG 2414/2416 28012KT
FM241600 28015G25KT P6SM SCT020 BKN040 TEMPO 2416/2501 P6SM -SHRA
BKN020 OVC040
RMK NXT FCST BY 241900Z=
Your time UTC time
Weather data provided by Environment Canada and NAV CANADA